sensor_id;sensor_type;location;lat;lon;timestamp;P1;durP1;ratioP1;P2;durP2;ratioP2
5923;SDS011;2987;50.884;14.818;2023-02-05T00:01:18;7.17;;;4.27;;
5923;SDS011;2987;50.884;14.818;2023-02-05T00:03:44;17.73;;;5.60;;
5923;SDS011;2987;50.884;14.818;2023-02-05T00:06:10;15.03;;;4.90;;
5923;SDS011;2987;50.884;14.818;2023-02-05T00:08:36;10.50;;;4.70;;
5923;SDS011;2987;50.884;14.818;2023-02-05T00:11:02;8.00;;;4.33;;
5923;SDS011;2987;50.884;14.818;2023-02-05T00:13:35;10.57;;;3.97;;
5923;SDS011;2987;50.884;14.818;2023-02-05T00:16:06;9.67;;;4.47;;
5923;SDS011;2987;50.884;14.818;2023-02-05T00:18:34;8.43;;;4.00;;
5923;SDS011;2987;50.884;14.818;2023-02-05T00:21:02;9.97;;;3.67;;
5923;SDS011;2987;50.884;14.818;2023-02-05T00:23:30;5.17;;;3.57;;
5923;SDS011;2987;50.884;14.818;2023-02-05T00:25:56;5.40;;;3.30;;
5923;SDS011;2987;50.884;14.818;2023-02-05T00:31:15;4.70;;;3.13;;
5923;SDS011;2987;50.884;14.818;2023-02-05T00:33:44;4.07;;;3.17;;
5923;SDS011;2987;50.884;14.818;2023-02-05T00:36:11;6.70;;;3.50;;
5923;SDS011;2987;50.884;14.818;2023-02-05T00:38:38;6.83;;;3.70;;
5923;SDS011;2987;50.884;14.818;2023-02-05T00:41:05;8.83;;;3.70;;
5923;SDS011;2987;50.884;14.818;2023-02-05T00:43:31;6.67;;;3.40;;
5923;SDS011;2987;50.884;14.818;2023-02-05T00:45:57;7.13;;;3.33;;
5923;SDS011;2987;50.884;14.818;2023-02-05T00:48:23;6.23;;;3.60;;
5923;SDS011;2987;50.884;14.818;2023-02-05T00:50:49;8.27;;;4.00;;
5923;SDS011;2987;50.884;14.818;2023-02-05T00:53:16;8.83;;;4.13;;
5923;SDS011;2987;50.884;14.818;2023-02-05T00:55:43;10.97;;;4.10;;
5923;SDS011;2987;50.884;14.818;2023-02-05T00:58:10;10.83;;;3.97;;
5923;SDS011;2987;50.884;14.818;2023-02-05T01:00:36;12.13;;;5.27;;
5923;SDS011;2987;50.884;14.818;2023-02-05T01:03:02;13.07;;;5.97;;
5923;SDS011;2987;50.884;14.818;2023-02-05T01:05:28;12.70;;;5.67;;
5923;SDS011;2987;50.884;14.818;2023-02-05T01:07:55;8.77;;;4.90;;
5923;SDS011;2987;50.884;14.818;2023-02-05T01:10:22;15.53;;;5.80;;
5923;SDS011;2987;50.884;14.818;2023-02-05T01:12:48;12.10;;;5.77;;
5923;SDS011;2987;50.884;14.818;2023-02-05T01:15:15;13.53;;;6.70;;
5923;SDS011;2987;50.884;14.818;2023-02-05T01:17:41;12.37;;;6.97;;
5923;SDS011;2987;50.884;14.818;2023-02-05T01:20:08;10.50;;;5.50;;
5923;SDS011;2987;50.884;14.818;2023-02-05T01:22:35;8.53;;;4.70;;
5923;SDS011;2987;50.884;14.818;2023-02-05T01:25:01;5.50;;;4.33;;
5923;SDS011;2987;50.884;14.818;2023-02-05T01:27:28;6.73;;;4.30;;
5923;SDS011;2987;50.884;14.818;2023-02-05T01:29:56;6.53;;;4.00;;
5923;SDS011;2987;50.884;14.818;2023-02-05T01:32:22;10.53;;;4.60;;
5923;SDS011;2987;50.884;14.818;2023-02-05T01:34:48;6.03;;;3.50;;
5923;SDS011;2987;50.884;14.818;2023-02-05T01:37:14;7.73;;;3.30;;
5923;SDS011;2987;50.884;14.818;2023-02-05T01:39:40;4.60;;;3.30;;
5923;SDS011;2987;50.884;14.818;2023-02-05T01:42:14;4.33;;;3.20;;
5923;SDS011;2987;50.884;14.818;2023-02-05T01:44:43;5.27;;;3.17;;
5923;SDS011;2987;50.884;14.818;2023-02-05T01:47:09;5.17;;;2.97;;
5923;SDS011;2987;50.884;14.818;2023-02-05T01:49:37;5.67;;;3.57;;
5923;SDS011;2987;50.884;14.818;2023-02-05T01:52:08;3.40;;;2.77;;
5923;SDS011;2987;50.884;14.818;2023-02-05T01:54:41;3.23;;;2.60;;
5923;SDS011;2987;50.884;14.818;2023-02-05T01:57:13;3.97;;;2.83;;
5923;SDS011;2987;50.884;14.818;2023-02-05T01:59:44;5.17;;;2.93;;
5923;SDS011;2987;50.884;14.818;2023-02-05T02:02:11;4.27;;;3.03;;
5923;SDS011;2987;50.884;14.818;2023-02-05T02:04:40;5.07;;;2.77;;
5923;SDS011;2987;50.884;14.818;2023-02-05T02:07:09;5.80;;;2.77;;
5923;SDS011;2987;50.884;14.818;2023-02-05T02:09:38;5.43;;;3.33;;
5923;SDS011;2987;50.884;14.818;2023-02-05T02:12:09;6.53;;;3.83;;
5923;SDS011;2987;50.884;14.818;2023-02-05T02:14:37;8.00;;;4.10;;
5923;SDS011;2987;50.884;14.818;2023-02-05T02:17:06;8.57;;;3.60;;
5923;SDS011;2987;50.884;14.818;2023-02-05T02:41:52;6.30;;;3.53;;
5923;SDS011;2987;50.884;14.818;2023-02-05T02:44:39;8.00;;;3.67;;
5923;SDS011;2987;50.884;14.818;2023-02-05T02:47:13;5.63;;;3.70;;
5923;SDS011;2987;50.884;14.818;2023-02-05T02:49:45;6.13;;;3.80;;
5923;SDS011;2987;50.884;14.818;2023-02-05T02:52:17;4.83;;;3.07;;
5923;SDS011;2987;50.884;14.818;2023-02-05T02:54:46;3.67;;;3.23;;
5923;SDS011;2987;50.884;14.818;2023-02-05T02:57:17;4.37;;;3.00;;
5923;SDS011;2987;50.884;14.818;2023-02-05T02:59:47;4.00;;;3.10;;
5923;SDS011;2987;50.884;14.818;2023-02-05T03:02:16;5.80;;;3.60;;
5923;SDS011;2987;50.884;14.818;2023-02-05T03:04:47;5.63;;;3.70;;
5923;SDS011;2987;50.884;14.818;2023-02-05T03:07:23;5.50;;;3.60;;
5923;SDS011;2987;50.884;14.818;2023-02-05T03:15:14;4.77;;;3.03;;
5923;SDS011;2987;50.884;14.818;2023-02-05T03:17:41;4.73;;;3.13;;
5923;SDS011;2987;50.884;14.818;2023-02-05T03:22:45;3.63;;;3.03;;
5923;SDS011;2987;50.884;14.818;2023-02-05T03:25:11;8.67;;;3.60;;
5923;SDS011;2987;50.884;14.818;2023-02-05T03:27:39;6.83;;;4.40;;
5923;SDS011;2987;50.884;14.818;2023-02-05T03:30:06;5.57;;;3.90;;
5923;SDS011;2987;50.884;14.818;2023-02-05T03:38:04;5.73;;;3.50;;
5923;SDS011;2987;50.884;14.818;2023-02-05T03:43:24;6.50;;;3.63;;
5923;SDS011;2987;50.884;14.818;2023-02-05T03:54:25;5.00;;;3.73;;
5923;SDS011;2987;50.884;14.818;2023-02-05T03:57:23;5.00;;;3.50;;
5923;SDS011;2987;50.884;14.818;2023-02-05T04:02:22;5.53;;;3.57;;
5923;SDS011;2987;50.884;14.818;2023-02-05T04:04:49;7.27;;;3.97;;
5923;SDS011;2987;50.884;14.818;2023-02-05T04:07:15;9.30;;;4.23;;
5923;SDS011;2987;50.884;14.818;2023-02-05T04:09:42;5.30;;;3.53;;
5923;SDS011;2987;50.884;14.818;2023-02-05T04:12:08;6.17;;;3.37;;
5923;SDS011;2987;50.884;14.818;2023-02-05T04:14:36;6.53;;;3.93;;
5923;SDS011;2987;50.884;14.818;2023-02-05T04:17:03;8.20;;;3.73;;
5923;SDS011;2987;50.884;14.818;2023-02-05T04:19:30;7.27;;;3.87;;
5923;SDS011;2987;50.884;14.818;2023-02-05T04:21:58;7.37;;;4.10;;
5923;SDS011;2987;50.884;14.818;2023-02-05T04:24:24;7.40;;;4.50;;
5923;SDS011;2987;50.884;14.818;2023-02-05T04:26:51;8.70;;;4.10;;
5923;SDS011;2987;50.884;14.818;2023-02-05T04:29:18;6.77;;;4.03;;
5923;SDS011;2987;50.884;14.818;2023-02-05T04:31:48;7.93;;;4.00;;
5923;SDS011;2987;50.884;14.818;2023-02-05T04:34:14;6.17;;;4.23;;
5923;SDS011;2987;50.884;14.818;2023-02-05T04:36:40;4.77;;;3.47;;
5923;SDS011;2987;50.884;14.818;2023-02-05T04:39:06;6.67;;;4.10;;
5923;SDS011;2987;50.884;14.818;2023-02-05T04:41:32;6.83;;;3.70;;
5923;SDS011;2987;50.884;14.818;2023-02-05T04:43:58;5.37;;;3.80;;
5923;SDS011;2987;50.884;14.818;2023-02-05T04:46:24;6.47;;;3.67;;
5923;SDS011;2987;50.884;14.818;2023-02-05T04:48:50;6.90;;;4.17;;
5923;SDS011;2987;50.884;14.818;2023-02-05T04:51:16;7.17;;;3.77;;
5923;SDS011;2987;50.884;14.818;2023-02-05T04:53:42;6.27;;;3.50;;
5923;SDS011;2987;50.884;14.818;2023-02-05T04:56:11;8.83;;;4.10;;
5923;SDS011;2987;50.884;14.818;2023-02-05T04:58:40;6.80;;;4.40;;
5923;SDS011;2987;50.884;14.818;2023-02-05T05:01:10;7.17;;;4.20;;
5923;SDS011;2987;50.884;14.818;2023-02-05T05:03:37;7.73;;;3.90;;
5923;SDS011;2987;50.884;14.818;2023-02-05T05:06:04;4.97;;;3.73;;
5923;SDS011;2987;50.884;14.818;2023-02-05T05:08:31;8.63;;;4.20;;
5923;SDS011;2987;50.884;14.818;2023-02-05T05:10:57;7.97;;;4.27;;
5923;SDS011;2987;50.884;14.818;2023-02-05T05:13:23;8.83;;;4.13;;
5923;SDS011;2987;50.884;14.818;2023-02-05T05:15:53;7.47;;;4.53;;
5923;SDS011;2987;50.884;14.818;2023-02-05T05:18:20;6.53;;;3.97;;
5923;SDS011;2987;50.884;14.818;2023-02-05T05:20:47;8.63;;;3.73;;
5923;SDS011;2987;50.884;14.818;2023-02-05T05:23:13;6.10;;;4.33;;
5923;SDS011;2987;50.884;14.818;2023-02-05T05:25:41;6.23;;;3.90;;
5923;SDS011;2987;50.884;14.818;2023-02-05T05:28:07;9.17;;;5.00;;
5923;SDS011;2987;50.884;14.818;2023-02-05T05:30:34;6.83;;;4.73;;
5923;SDS011;2987;50.884;14.818;2023-02-05T05:33:02;7.77;;;4.50;;
5923;SDS011;2987;50.884;14.818;2023-02-05T05:35:28;7.30;;;3.70;;
5923;SDS011;2987;50.884;14.818;2023-02-05T05:37:55;7.10;;;4.50;;
5923;SDS011;2987;50.884;14.818;2023-02-05T05:40:22;5.40;;;4.00;;
5923;SDS011;2987;50.884;14.818;2023-02-05T05:43:10;6.63;;;3.73;;
5923;SDS011;2987;50.884;14.818;2023-02-05T05:45:56;6.63;;;4.03;;
5923;SDS011;2987;50.884;14.818;2023-02-05T05:51:15;7.83;;;4.10;;
5923;SDS011;2987;50.884;14.818;2023-02-05T05:53:42;5.50;;;3.53;;
5923;SDS011;2987;50.884;14.818;2023-02-05T05:56:08;6.80;;;4.00;;
5923;SDS011;2987;50.884;14.818;2023-02-05T05:58:34;5.90;;;4.50;;
5923;SDS011;2987;50.884;14.818;2023-02-05T06:01:00;7.40;;;4.40;;
5923;SDS011;2987;50.884;14.818;2023-02-05T06:03:26;5.63;;;4.17;;
5923;SDS011;2987;50.884;14.818;2023-02-05T06:05:52;4.60;;;3.90;;
5923;SDS011;2987;50.884;14.818;2023-02-05T06:08:18;6.97;;;4.00;;
5923;SDS011;2987;50.884;14.818;2023-02-05T06:10:44;6.37;;;3.93;;
5923;SDS011;2987;50.884;14.818;2023-02-05T06:13:10;7.80;;;4.07;;
5923;SDS011;2987;50.884;14.818;2023-02-05T06:15:36;4.57;;;3.17;;
5923;SDS011;2987;50.884;14.818;2023-02-05T06:18:03;7.23;;;3.70;;
5923;SDS011;2987;50.884;14.818;2023-02-05T06:20:29;7.20;;;4.03;;
5923;SDS011;2987;50.884;14.818;2023-02-05T06:22:55;5.70;;;3.70;;
5923;SDS011;2987;50.884;14.818;2023-02-05T06:25:21;6.17;;;3.60;;
5923;SDS011;2987;50.884;14.818;2023-02-05T06:27:47;6.90;;;3.63;;
5923;SDS011;2987;50.884;14.818;2023-02-05T06:30:13;5.43;;;3.57;;
5923;SDS011;2987;50.884;14.818;2023-02-05T06:32:39;5.37;;;3.57;;
5923;SDS011;2987;50.884;14.818;2023-02-05T06:35:05;4.03;;;3.40;;
5923;SDS011;2987;50.884;14.818;2023-02-05T06:37:31;6.13;;;3.63;;
5923;SDS011;2987;50.884;14.818;2023-02-05T06:39:57;5.20;;;3.53;;
5923;SDS011;2987;50.884;14.818;2023-02-05T06:42:23;4.03;;;3.30;;
5923;SDS011;2987;50.884;14.818;2023-02-05T06:44:49;7.70;;;3.77;;
5923;SDS011;2987;50.884;14.818;2023-02-05T06:47:15;4.43;;;3.20;;
5923;SDS011;2987;50.884;14.818;2023-02-05T06:49:41;6.67;;;3.60;;
5923;SDS011;2987;50.884;14.818;2023-02-05T06:52:10;6.07;;;3.27;;
5923;SDS011;2987;50.884;14.818;2023-02-05T06:54:36;5.00;;;3.60;;
5923;SDS011;2987;50.884;14.818;2023-02-05T06:57:03;7.97;;;3.80;;
5923;SDS011;2987;50.884;14.818;2023-02-05T06:59:29;7.37;;;3.83;;
5923;SDS011;2987;50.884;14.818;2023-02-05T07:01:55;5.90;;;4.00;;
5923;SDS011;2987;50.884;14.818;2023-02-05T07:04:21;6.03;;;3.93;;
5923;SDS011;2987;50.884;14.818;2023-02-05T07:06:52;6.43;;;4.37;;
5923;SDS011;2987;50.884;14.818;2023-02-05T07:09:19;10.40;;;5.30;;
5923;SDS011;2987;50.884;14.818;2023-02-05T07:11:45;7.60;;;3.80;;
5923;SDS011;2987;50.884;14.818;2023-02-05T07:14:11;6.03;;;3.90;;
5923;SDS011;2987;50.884;14.818;2023-02-05T07:16:37;10.73;;;4.53;;
5923;SDS011;2987;50.884;14.818;2023-02-05T07:19:03;6.03;;;4.53;;
5923;SDS011;2987;50.884;14.818;2023-02-05T07:21:29;7.57;;;4.37;;
5923;SDS011;2987;50.884;14.818;2023-02-05T07:23:55;7.73;;;4.80;;
5923;SDS011;2987;50.884;14.818;2023-02-05T07:26:21;7.53;;;4.27;;
5923;SDS011;2987;50.884;14.818;2023-02-05T07:28:48;8.93;;;4.60;;
5923;SDS011;2987;50.884;14.818;2023-02-05T07:31:15;7.97;;;4.60;;
5923;SDS011;2987;50.884;14.818;2023-02-05T07:33:43;8.33;;;4.50;;
5923;SDS011;2987;50.884;14.818;2023-02-05T07:36:11;7.63;;;4.67;;
5923;SDS011;2987;50.884;14.818;2023-02-05T07:38:40;7.57;;;5.00;;
5923;SDS011;2987;50.884;14.818;2023-02-05T07:41:08;8.40;;;5.20;;
5923;SDS011;2987;50.884;14.818;2023-02-05T07:43:35;10.30;;;5.73;;
5923;SDS011;2987;50.884;14.818;2023-02-05T07:46:03;9.77;;;5.50;;
5923;SDS011;2987;50.884;14.818;2023-02-05T07:48:32;8.73;;;5.77;;
5923;SDS011;2987;50.884;14.818;2023-02-05T07:50:59;14.07;;;5.90;;
5923;SDS011;2987;50.884;14.818;2023-02-05T07:53:25;9.57;;;5.50;;
5923;SDS011;2987;50.884;14.818;2023-02-05T07:55:51;8.67;;;5.40;;
5923;SDS011;2987;50.884;14.818;2023-02-05T07:58:18;9.80;;;5.37;;
5923;SDS011;2987;50.884;14.818;2023-02-05T08:00:44;8.53;;;6.30;;
5923;SDS011;2987;50.884;14.818;2023-02-05T08:03:10;10.53;;;6.17;;
5923;SDS011;2987;50.884;14.818;2023-02-05T08:05:37;9.43;;;5.37;;
5923;SDS011;2987;50.884;14.818;2023-02-05T08:08:04;11.27;;;5.67;;
5923;SDS011;2987;50.884;14.818;2023-02-05T08:10:31;7.37;;;5.17;;
5923;SDS011;2987;50.884;14.818;2023-02-05T08:12:57;10.80;;;5.63;;
5923;SDS011;2987;50.884;14.818;2023-02-05T08:15:23;7.67;;;4.90;;
5923;SDS011;2987;50.884;14.818;2023-02-05T08:17:51;8.30;;;5.10;;
5923;SDS011;2987;50.884;14.818;2023-02-05T08:20:17;9.33;;;5.13;;
5923;SDS011;2987;50.884;14.818;2023-02-05T08:22:44;7.00;;;4.90;;
5923;SDS011;2987;50.884;14.818;2023-02-05T08:25:11;6.50;;;4.77;;
5923;SDS011;2987;50.884;14.818;2023-02-05T08:27:39;9.30;;;5.07;;
5923;SDS011;2987;50.884;14.818;2023-02-05T08:30:08;7.53;;;4.53;;
5923;SDS011;2987;50.884;14.818;2023-02-05T08:32:36;5.73;;;3.97;;
5923;SDS011;2987;50.884;14.818;2023-02-05T08:35:02;7.97;;;4.43;;
5923;SDS011;2987;50.884;14.818;2023-02-05T08:37:29;10.03;;;4.60;;
5923;SDS011;2987;50.884;14.818;2023-02-05T08:39:55;7.90;;;4.97;;
5923;SDS011;2987;50.884;14.818;2023-02-05T08:42:21;8.53;;;4.60;;
5923;SDS011;2987;50.884;14.818;2023-02-05T08:44:49;7.37;;;4.60;;
5923;SDS011;2987;50.884;14.818;2023-02-05T14:54:34;15.30;;;6.83;;
5923;SDS011;2987;50.884;14.818;2023-02-05T14:57:17;19.67;;;7.00;;
5923;SDS011;2987;50.884;14.818;2023-02-05T14:59:51;15.87;;;6.50;;
5923;SDS011;2987;50.884;14.818;2023-02-05T15:05:30;22.37;;;8.77;;
5923;SDS011;2987;50.884;14.818;2023-02-05T15:08:12;23.23;;;8.90;;
5923;SDS011;2987;50.884;14.818;2023-02-05T15:16:06;21.27;;;10.87;;
5923;SDS011;2987;50.884;14.818;2023-02-05T15:18:57;25.20;;;10.83;;
5923;SDS011;2987;50.884;14.818;2023-02-05T15:21:27;29.73;;;11.43;;
5923;SDS011;2987;50.884;14.818;2023-02-05T15:23:59;22.73;;;9.07;;
5923;SDS011;2987;50.884;14.818;2023-02-05T15:26:34;15.40;;;6.90;;
5923;SDS011;2987;50.884;14.818;2023-02-05T15:29:30;10.97;;;6.13;;
5923;SDS011;2987;50.884;14.818;2023-02-05T15:34:55;15.77;;;5.77;;
5923;SDS011;2987;50.884;14.818;2023-02-05T15:40:21;11.40;;;5.40;;
5923;SDS011;2987;50.884;14.818;2023-02-05T15:42:53;7.87;;;4.80;;
5923;SDS011;2987;50.884;14.818;2023-02-05T15:45:40;10.23;;;4.90;;
5923;SDS011;2987;50.884;14.818;2023-02-05T15:48:11;7.90;;;4.87;;
5923;SDS011;2987;50.884;14.818;2023-02-05T15:55:56;8.33;;;4.77;;
5923;SDS011;2987;50.884;14.818;2023-02-05T15:58:23;9.17;;;5.07;;
5923;SDS011;2987;50.884;14.818;2023-02-05T16:00:51;8.73;;;4.80;;
5923;SDS011;2987;50.884;14.818;2023-02-05T16:03:35;9.03;;;5.13;;
5923;SDS011;2987;50.884;14.818;2023-02-05T16:06:03;8.83;;;5.00;;
5923;SDS011;2987;50.884;14.818;2023-02-05T16:08:32;8.40;;;4.60;;
5923;SDS011;2987;50.884;14.818;2023-02-05T16:10:59;9.37;;;5.37;;
5923;SDS011;2987;50.884;14.818;2023-02-05T16:13:29;7.70;;;4.83;;
5923;SDS011;2987;50.884;14.818;2023-02-05T16:15:58;9.97;;;5.20;;
5923;SDS011;2987;50.884;14.818;2023-02-05T16:21:24;9.50;;;5.57;;
5923;SDS011;2987;50.884;14.818;2023-02-05T16:23:58;8.00;;;5.13;;
5923;SDS011;2987;50.884;14.818;2023-02-05T16:26:29;9.13;;;5.10;;
5923;SDS011;2987;50.884;14.818;2023-02-05T16:29:12;12.53;;;5.50;;
5923;SDS011;2987;50.884;14.818;2023-02-05T16:31:55;7.73;;;4.73;;
5923;SDS011;2987;50.884;14.818;2023-02-05T16:34:26;8.57;;;5.73;;
5923;SDS011;2987;50.884;14.818;2023-02-05T16:36:53;11.87;;;6.03;;
5923;SDS011;2987;50.884;14.818;2023-02-05T16:39:24;11.33;;;7.40;;
5923;SDS011;2987;50.884;14.818;2023-02-05T16:42:01;15.23;;;8.17;;
5923;SDS011;2987;50.884;14.818;2023-02-05T16:44:35;16.33;;;7.67;;
5923;SDS011;2987;50.884;14.818;2023-02-05T16:47:05;14.60;;;8.43;;
5923;SDS011;2987;50.884;14.818;2023-02-05T16:49:47;13.67;;;7.73;;
5923;SDS011;2987;50.884;14.818;2023-02-05T16:55:04;14.83;;;7.77;;
5923;SDS011;2987;50.884;14.818;2023-02-05T16:57:51;17.50;;;7.97;;
5923;SDS011;2987;50.884;14.818;2023-02-05T17:05:33;16.20;;;9.20;;
5923;SDS011;2987;50.884;14.818;2023-02-05T17:08:03;15.93;;;8.90;;
5923;SDS011;2987;50.884;14.818;2023-02-05T17:24:00;14.10;;;8.20;;
5923;SDS011;2987;50.884;14.818;2023-02-05T17:28:59;17.63;;;8.77;;
5923;SDS011;2987;50.884;14.818;2023-02-05T17:31:27;22.30;;;9.67;;
5923;SDS011;2987;50.884;14.818;2023-02-05T17:33:57;14.73;;;8.13;;
5923;SDS011;2987;50.884;14.818;2023-02-05T17:36:23;16.03;;;9.10;;
5923;SDS011;2987;50.884;14.818;2023-02-05T17:38:50;16.30;;;8.80;;
5923;SDS011;2987;50.884;14.818;2023-02-05T17:41:17;19.07;;;8.97;;
5923;SDS011;2987;50.884;14.818;2023-02-05T17:44:05;14.73;;;8.40;;
5923;SDS011;2987;50.884;14.818;2023-02-05T17:46:36;17.20;;;8.73;;
5923;SDS011;2987;50.884;14.818;2023-02-05T17:49:02;15.37;;;8.53;;
5923;SDS011;2987;50.884;14.818;2023-02-05T17:51:28;15.40;;;8.90;;
5923;SDS011;2987;50.884;14.818;2023-02-05T17:53:54;16.60;;;8.27;;
5923;SDS011;2987;50.884;14.818;2023-02-05T17:56:20;14.63;;;8.47;;
5923;SDS011;2987;50.884;14.818;2023-02-05T17:58:48;22.77;;;9.27;;
5923;SDS011;2987;50.884;14.818;2023-02-05T18:01:16;16.00;;;9.30;;
5923;SDS011;2987;50.884;14.818;2023-02-05T18:03:42;15.00;;;7.90;;
5923;SDS011;2987;50.884;14.818;2023-02-05T18:06:10;14.50;;;8.57;;
5923;SDS011;2987;50.884;14.818;2023-02-05T18:08:38;18.43;;;9.47;;
5923;SDS011;2987;50.884;14.818;2023-02-05T18:11:07;19.07;;;9.33;;
5923;SDS011;2987;50.884;14.818;2023-02-05T18:13:34;15.37;;;9.17;;
5923;SDS011;2987;50.884;14.818;2023-02-05T18:16:01;14.73;;;9.17;;
5923;SDS011;2987;50.884;14.818;2023-02-05T18:18:29;17.03;;;9.23;;
5923;SDS011;2987;50.884;14.818;2023-02-05T18:20:56;18.40;;;9.57;;
5923;SDS011;2987;50.884;14.818;2023-02-05T18:23:23;15.30;;;9.30;;
5923;SDS011;2987;50.884;14.818;2023-02-05T18:25:49;16.97;;;9.40;;
5923;SDS011;2987;50.884;14.818;2023-02-05T18:28:15;18.57;;;9.77;;
5923;SDS011;2987;50.884;14.818;2023-02-05T18:30:42;18.40;;;10.03;;
5923;SDS011;2987;50.884;14.818;2023-02-05T18:33:08;16.77;;;9.07;;
5923;SDS011;2987;50.884;14.818;2023-02-05T18:35:35;15.87;;;8.83;;
5923;SDS011;2987;50.884;14.818;2023-02-05T18:38:02;18.90;;;9.73;;
5923;SDS011;2987;50.884;14.818;2023-02-05T18:40:28;16.37;;;9.37;;
5923;SDS011;2987;50.884;14.818;2023-02-05T18:42:55;16.90;;;9.37;;
5923;SDS011;2987;50.884;14.818;2023-02-05T18:45:21;17.43;;;10.03;;
5923;SDS011;2987;50.884;14.818;2023-02-05T18:47:47;19.47;;;10.00;;
5923;SDS011;2987;50.884;14.818;2023-02-05T18:50:14;15.77;;;9.30;;
5923;SDS011;2987;50.884;14.818;2023-02-05T18:52:41;16.50;;;9.07;;
5923;SDS011;2987;50.884;14.818;2023-02-05T18:55:07;13.97;;;8.70;;
5923;SDS011;2987;50.884;14.818;2023-02-05T18:57:33;18.63;;;10.07;;
5923;SDS011;2987;50.884;14.818;2023-02-05T18:59:59;17.20;;;9.73;;
5923;SDS011;2987;50.884;14.818;2023-02-05T19:02:25;21.60;;;9.53;;
5923;SDS011;2987;50.884;14.818;2023-02-05T19:04:52;20.63;;;9.00;;
5923;SDS011;2987;50.884;14.818;2023-02-05T19:07:20;15.07;;;10.03;;
5923;SDS011;2987;50.884;14.818;2023-02-05T19:09:48;16.90;;;9.30;;
5923;SDS011;2987;50.884;14.818;2023-02-05T19:12:16;16.60;;;9.30;;
5923;SDS011;2987;50.884;14.818;2023-02-05T19:14:43;18.70;;;9.60;;
5923;SDS011;2987;50.884;14.818;2023-02-05T19:17:13;19.53;;;10.43;;
5923;SDS011;2987;50.884;14.818;2023-02-05T19:19:39;16.93;;;9.37;;
5923;SDS011;2987;50.884;14.818;2023-02-05T19:22:05;19.27;;;10.37;;
5923;SDS011;2987;50.884;14.818;2023-02-05T19:24:31;23.33;;;10.33;;
5923;SDS011;2987;50.884;14.818;2023-02-05T19:26:58;16.43;;;9.60;;
5923;SDS011;2987;50.884;14.818;2023-02-05T19:29:24;20.20;;;9.70;;
5923;SDS011;2987;50.884;14.818;2023-02-05T19:31:51;19.13;;;9.43;;
5923;SDS011;2987;50.884;14.818;2023-02-05T19:34:18;19.63;;;9.83;;
5923;SDS011;2987;50.884;14.818;2023-02-05T19:36:46;17.03;;;10.30;;
5923;SDS011;2987;50.884;14.818;2023-02-05T19:39:13;18.53;;;10.30;;
5923;SDS011;2987;50.884;14.818;2023-02-05T19:41:40;19.77;;;10.53;;
5923;SDS011;2987;50.884;14.818;2023-02-05T19:44:10;23.60;;;11.67;;
5923;SDS011;2987;50.884;14.818;2023-02-05T19:46:37;24.60;;;12.60;;
5923;SDS011;2987;50.884;14.818;2023-02-05T19:49:12;19.37;;;11.40;;
5923;SDS011;2987;50.884;14.818;2023-02-05T19:51:42;22.73;;;11.03;;
5923;SDS011;2987;50.884;14.818;2023-02-05T19:54:10;17.93;;;10.27;;
5923;SDS011;2987;50.884;14.818;2023-02-05T19:56:36;21.13;;;9.83;;
5923;SDS011;2987;50.884;14.818;2023-02-05T19:59:02;19.60;;;9.80;;
5923;SDS011;2987;50.884;14.818;2023-02-05T20:01:31;16.80;;;9.03;;
5923;SDS011;2987;50.884;14.818;2023-02-05T20:04:00;12.07;;;8.23;;
5923;SDS011;2987;50.884;14.818;2023-02-05T20:06:31;17.53;;;8.50;;
5923;SDS011;2987;50.884;14.818;2023-02-05T20:08:58;16.57;;;9.00;;
5923;SDS011;2987;50.884;14.818;2023-02-05T20:11:25;17.70;;;8.83;;
5923;SDS011;2987;50.884;14.818;2023-02-05T20:13:54;16.90;;;9.10;;
5923;SDS011;2987;50.884;14.818;2023-02-05T20:16:21;14.70;;;8.63;;
5923;SDS011;2987;50.884;14.818;2023-02-05T20:18:51;19.47;;;9.70;;
5923;SDS011;2987;50.884;14.818;2023-02-05T20:21:23;15.17;;;8.60;;
5923;SDS011;2987;50.884;14.818;2023-02-05T20:23:51;17.47;;;8.47;;
5923;SDS011;2987;50.884;14.818;2023-02-05T20:26:22;16.73;;;8.57;;
5923;SDS011;2987;50.884;14.818;2023-02-05T20:28:51;13.70;;;8.67;;
5923;SDS011;2987;50.884;14.818;2023-02-05T20:31:41;15.60;;;8.93;;
5923;SDS011;2987;50.884;14.818;2023-02-05T20:34:12;18.27;;;8.47;;
5923;SDS011;2987;50.884;14.818;2023-02-05T20:36:51;13.27;;;7.93;;
5923;SDS011;2987;50.884;14.818;2023-02-05T20:39:20;15.23;;;8.27;;
5923;SDS011;2987;50.884;14.818;2023-02-05T20:41:49;21.70;;;8.53;;
5923;SDS011;2987;50.884;14.818;2023-02-05T20:44:16;13.53;;;8.03;;
5923;SDS011;2987;50.884;14.818;2023-02-05T20:46:46;16.40;;;8.83;;
5923;SDS011;2987;50.884;14.818;2023-02-05T20:49:13;13.17;;;8.07;;
5923;SDS011;2987;50.884;14.818;2023-02-05T20:51:39;14.40;;;7.97;;
5923;SDS011;2987;50.884;14.818;2023-02-05T20:54:06;17.37;;;7.60;;
5923;SDS011;2987;50.884;14.818;2023-02-05T20:56:32;12.93;;;7.83;;
5923;SDS011;2987;50.884;14.818;2023-02-05T20:59:00;16.93;;;7.83;;
5923;SDS011;2987;50.884;14.818;2023-02-05T21:01:29;14.07;;;8.20;;
5923;SDS011;2987;50.884;14.818;2023-02-05T21:03:58;15.20;;;8.10;;
5923;SDS011;2987;50.884;14.818;2023-02-05T21:06:27;15.17;;;8.47;;
5923;SDS011;2987;50.884;14.818;2023-02-05T21:08:56;16.20;;;8.23;;
5923;SDS011;2987;50.884;14.818;2023-02-05T21:11:22;15.27;;;7.67;;
5923;SDS011;2987;50.884;14.818;2023-02-05T21:13:50;16.93;;;8.93;;
5923;SDS011;2987;50.884;14.818;2023-02-05T21:16:18;15.27;;;8.43;;
5923;SDS011;2987;50.884;14.818;2023-02-05T21:18:46;19.40;;;9.80;;
5923;SDS011;2987;50.884;14.818;2023-02-05T21:21:15;23.60;;;9.43;;
5923;SDS011;2987;50.884;14.818;2023-02-05T21:23:43;25.47;;;11.53;;
5923;SDS011;2987;50.884;14.818;2023-02-05T21:26:20;22.20;;;11.20;;
5923;SDS011;2987;50.884;14.818;2023-02-05T21:28:50;24.40;;;11.63;;
5923;SDS011;2987;50.884;14.818;2023-02-05T21:31:18;24.17;;;12.77;;
5923;SDS011;2987;50.884;14.818;2023-02-05T21:33:44;24.97;;;13.57;;
5923;SDS011;2987;50.884;14.818;2023-02-05T21:36:10;31.87;;;14.37;;
5923;SDS011;2987;50.884;14.818;2023-02-05T21:38:37;31.17;;;15.67;;
5923;SDS011;2987;50.884;14.818;2023-02-05T21:41:06;29.10;;;13.83;;
5923;SDS011;2987;50.884;14.818;2023-02-05T21:43:34;28.57;;;14.50;;
5923;SDS011;2987;50.884;14.818;2023-02-05T21:46:04;28.97;;;13.80;;
5923;SDS011;2987;50.884;14.818;2023-02-05T21:48:32;27.67;;;14.37;;
5923;SDS011;2987;50.884;14.818;2023-02-05T21:50:58;29.83;;;12.13;;
5923;SDS011;2987;50.884;14.818;2023-02-05T21:53:29;26.57;;;12.33;;
5923;SDS011;2987;50.884;14.818;2023-02-05T21:55:55;24.53;;;12.27;;
5923;SDS011;2987;50.884;14.818;2023-02-05T21:58:24;21.03;;;12.00;;
5923;SDS011;2987;50.884;14.818;2023-02-05T22:00:50;25.00;;;12.50;;
5923;SDS011;2987;50.884;14.818;2023-02-05T22:03:16;25.13;;;12.37;;
5923;SDS011;2987;50.884;14.818;2023-02-05T22:05:42;32.20;;;12.83;;
5923;SDS011;2987;50.884;14.818;2023-02-05T22:08:08;28.97;;;13.93;;
5923;SDS011;2987;50.884;14.818;2023-02-05T22:10:34;29.53;;;14.90;;
5923;SDS011;2987;50.884;14.818;2023-02-05T22:13:00;32.17;;;14.90;;
5923;SDS011;2987;50.884;14.818;2023-02-05T22:15:26;34.53;;;15.53;;
5923;SDS011;2987;50.884;14.818;2023-02-05T22:17:52;27.73;;;15.23;;
5923;SDS011;2987;50.884;14.818;2023-02-05T22:20:18;34.10;;;15.07;;
5923;SDS011;2987;50.884;14.818;2023-02-05T22:22:45;29.50;;;15.20;;
5923;SDS011;2987;50.884;14.818;2023-02-05T22:25:11;31.13;;;15.80;;
5923;SDS011;2987;50.884;14.818;2023-02-05T22:27:37;27.10;;;14.53;;
5923;SDS011;2987;50.884;14.818;2023-02-05T22:30:03;33.13;;;17.47;;
5923;SDS011;2987;50.884;14.818;2023-02-05T22:32:29;33.43;;;15.67;;
5923;SDS011;2987;50.884;14.818;2023-02-05T22:34:56;34.50;;;17.00;;
5923;SDS011;2987;50.884;14.818;2023-02-05T22:37:25;35.43;;;16.20;;
5923;SDS011;2987;50.884;14.818;2023-02-05T22:39:52;32.83;;;16.57;;
5923;SDS011;2987;50.884;14.818;2023-02-05T22:42:18;34.00;;;16.23;;
5923;SDS011;2987;50.884;14.818;2023-02-05T22:44:47;28.07;;;15.47;;
5923;SDS011;2987;50.884;14.818;2023-02-05T22:47:13;34.53;;;16.80;;
5923;SDS011;2987;50.884;14.818;2023-02-05T22:49:39;33.60;;;17.20;;